Time;durP1;ratioP1;P1;durP2;ratioP2;P2;SDS_P1;SDS_P2;PMS_P1;PMS_P2;Temp;Humidity;BMP_temperature;BMP_pressure;BME280_temperature;BME280_humidity;BME280_pressure;Samples;Min_cycle;Max_cycle;Signal;HPM_P1;HPM_P2
2022/11/23 00:03:18;;;;;;;11.17;1.53;;;8.00;1.00;;;;;;5076100;28;20487;-87
2022/11/23 00:06:24;;;;;;;4.00;1.17;;;8.10;1.00;;;;;;5084741;28;20415;-87
2022/11/23 00:08:55;;;;;;;7.10;1.57;;;8.10;1.00;;;;;;5075781;28;20510;-84
2022/11/23 00:11:32;;;;;;;2.03;1.60;;;8.10;1.00;;;;;;5093086;28;20413;-83
2022/11/23 00:14:07;;;;;;;9.60;2.00;;;8.10;1.00;;;;;;5085975;28;20413;-84
2022/11/23 00:17:18;;;;;;;7.90;1.93;;;8.00;1.00;;;;;;5076861;28;20996;-84
2022/11/23 00:19:49;;;;;;;3.30;1.40;;;8.00;1.00;;;;;;5078345;28;20452;-84
2022/11/23 00:22:36;;;;;;;3.90;2.20;;;8.10;1.00;;;;;;5094831;28;21076;-84
2022/11/23 00:25:02;;;;;;;1.73;1.43;;;8.10;1.00;;;;;;5084992;28;20428;-84
2022/11/23 00:27:37;;;;;;;5.60;2.00;;;8.10;1.00;;;;;;5075375;28;20555;-83
2022/11/23 00:30:19;;;;;;;4.57;1.40;;;8.20;1.00;;;;;;5083240;28;20431;-85
2022/11/23 00:33:01;;;;;;;6.33;2.27;;;8.20;1.00;;;;;;5078148;28;20432;-83
2022/11/23 00:38:49;;;;;;;4.57;1.73;;;8.10;1.00;;;;;;5083655;28;20560;-87
2022/11/23 00:54:49;;;;;;;6.50;1.67;;;8.10;1.00;;;;;;5074528;28;20460;-87
2022/11/23 00:57:25;;;;;;;3.70;1.43;;;8.20;1.00;;;;;;5084465;28;20935;-87
2022/11/23 01:00:12;;;;;;;9.33;2.00;;;8.10;1.00;;;;;;5086449;28;21017;-87
2022/11/23 01:06:09;;;;;;;5.87;1.70;;;8.00;1.00;;;;;;5074618;28;20440;-87
2022/11/23 01:08:50;;;;;;;5.93;1.90;;;8.00;1.00;;;;;;5085163;28;20438;-87
2022/11/23 01:11:20;;;;;;;6.47;2.03;;;8.40;1.00;;;;;;5079677;28;20435;-87
2022/11/23 01:20:29;;;;;;;2.77;1.40;;;7.90;1.00;;;;;;5090357;28;20454;-87
2022/11/23 01:23:01;;;;;;;7.33;1.50;;;7.90;1.00;;;;;;5094221;28;20396;-84
2022/11/23 01:28:49;;;;;;;8.47;1.70;;;8.00;1.00;;;;;;5077329;28;20416;-84
2022/11/23 01:31:54;;;;;;;5.77;1.57;;;8.00;1.00;;;;;;5086452;28;20772;-84
2022/11/23 01:35:00;;;;;;;3.10;1.90;;;8.00;1.00;;;;;;5083421;28;20415;-84
2022/11/23 01:37:48;;;;;;;8.90;1.77;;;8.00;1.00;;;;;;5073705;28;20449;-86
2022/11/23 01:40:14;;;;;;;8.07;1.70;;;8.10;1.00;;;;;;5090449;28;20428;-84
2022/11/23 01:43:12;;;;;;;6.67;1.57;;;8.10;1.00;;;;;;5087739;28;20424;-83
2022/11/23 01:46:00;;;;;;;22.23;1.83;;;8.10;1.00;;;;;;5084454;28;20413;-84
2022/11/23 01:48:47;;;;;;;5.07;1.70;;;8.20;1.00;;;;;;5074093;28;20459;-84
2022/11/23 01:51:44;;;;;;;3.63;1.43;;;8.20;1.00;;;;;;5072679;28;20477;-84
2022/11/23 02:00:53;;;;;;;5.47;1.53;;;8.30;1.00;;;;;;5078724;28;20416;-86
2022/11/23 02:10:03;;;;;;;6.63;1.53;;;8.30;1.00;;;;;;5087742;28;20411;-84
2022/11/23 02:12:37;;;;;;;6.87;2.13;;;8.40;1.00;;;;;;5095566;28;20424;-84
2022/11/23 02:15:32;;;;;;;4.97;1.50;;;8.40;1.00;;;;;;5088042;28;20837;-84
2022/11/23 02:21:20;;;;;;;3.10;1.50;;;8.50;1.00;;;;;;5077428;28;20482;-84
2022/11/23 02:24:04;;;;;;;4.77;1.40;;;8.50;1.00;;;;;;5090290;28;20404;-87
2022/11/23 02:26:33;;;;;;;4.47;1.73;;;8.50;1.00;;;;;;5076916;28;20417;-87
2022/11/23 02:32:23;;;;;;;2.27;1.10;;;8.50;1.00;;;;;;5085479;28;20418;-87
2022/11/23 02:38:11;;;;;;;4.40;1.43;;;8.50;1.00;;;;;;5078182;28;20492;-87
2022/11/23 02:40:36;;;;;;;2.70;1.33;;;8.80;1.00;;;;;;5076353;28;20809;-87
2022/11/23 02:43:54;;;;;;;7.07;1.40;;;8.50;1.00;;;;;;5076660;28;20163;-87
2022/11/23 02:53:10;;;;;;;7.67;1.57;;;8.60;1.00;;;;;;5091673;28;20411;-87
2022/11/23 02:56:00;;;;;;;2.80;1.63;;;8.50;1.00;;;;;;5088544;28;20409;-84
2022/11/23 02:58:26;;;;;;;3.67;1.90;;;8.50;1.00;;;;;;5079286;28;20452;-84
2022/11/23 03:00:55;;;;;;;6.20;1.80;;;8.60;1.00;;;;;;5091485;28;20491;-84
2022/11/23 03:03:37;;;;;;;3.03;1.43;;;8.60;1.00;;;;;;5076009;28;20167;-84
2022/11/23 03:06:13;;;;;;;6.50;1.43;;;8.50;1.00;;;;;;5076850;28;20420;-84
2022/11/23 03:09:12;;;;;;;7.07;1.47;;;8.50;1.00;;;;;;5082816;28;20437;-84
2022/11/23 03:15:00;;;;;;;8.27;1.87;;;8.50;1.00;;;;;;5076629;28;20450;-84
2022/11/23 03:17:56;;;;;;;8.30;1.43;;;8.50;1.00;;;;;;5077526;28;20452;-84
2022/11/23 03:27:05;;;;;;;3.67;1.60;;;8.30;1.00;;;;;;5080663;28;20439;-85
2022/11/23 03:29:37;;;;;;;3.60;1.50;;;8.20;1.00;;;;;;5075558;28;20426;-86
2022/11/23 03:35:24;;;;;;;6.30;1.50;;;8.20;1.00;;;;;;5082640;28;20412;-87
2022/11/23 03:38:07;;;;;;;8.37;1.80;;;8.20;1.00;;;;;;5092166;28;20421;-87
2022/11/23 03:40:49;;;;;;;4.23;1.70;;;8.20;1.00;;;;;;5092188;28;20191;-82
2022/11/23 03:43:39;;;;;;;10.03;1.60;;;8.20;1.00;;;;;;5082858;28;20412;-85
2022/11/23 03:46:05;;;;;;;3.57;1.30;;;8.20;1.00;;;;;;5080555;28;20423;-85
2022/11/23 03:48:43;;;;;;;7.77;1.57;;;8.20;1.00;;;;;;5087792;28;20424;-84
2022/11/23 03:54:43;;;;;;;7.43;2.00;;;8.20;1.00;;;;;;5079903;28;20405;-86
2022/11/23 04:03:52;;;;;;;3.23;1.40;;;8.30;1.00;;;;;;5088703;28;20408;-87
2022/11/23 04:06:35;;;;;;;6.83;1.20;;;8.30;1.00;;;;;;5091835;28;20413;-86
2022/11/23 04:09:00;;;;;;;7.20;2.07;;;8.40;1.00;;;;;;5094248;28;20281;-86
2022/11/23 04:14:48;;;;;;;9.93;1.70;;;8.30;1.00;;;;;;5089243;28;20197;-86
2022/11/23 04:17:25;;;;;;;5.90;1.40;;;8.30;1.00;;;;;;5074979;28;20425;-85
2022/11/23 04:20:24;;;;;;;7.03;1.70;;;8.50;1.00;;;;;;5088562;28;20687;-86
2022/11/23 04:23:24;;;;;;;9.63;1.80;;;8.20;1.00;;;;;;5094739;28;20492;-86
2022/11/23 04:25:55;;;;;;;2.20;1.27;;;8.30;1.00;;;;;;5080473;28;20427;-84
2022/11/23 04:35:24;;;;;;;7.93;1.90;;;8.30;1.00;;;;;;5079314;28;20975;-84
2022/11/23 04:37:55;;;;;;;3.30;1.30;;;8.40;1.00;;;;;;5090214;28;20784;-84
2022/11/23 04:40:25;;;;;;;4.90;1.87;;;8.40;1.00;;;;;;5083003;28;20440;-86
2022/11/23 04:43:24;;;;;;;2.40;1.30;;;8.40;1.00;;;;;;5078603;28;20433;-86
2022/11/23 04:46:24;;;;;;;4.10;1.20;;;8.40;1.00;;;;;;5074046;28;20425;-87
2022/11/23 04:48:55;;;;;;;6.60;2.13;;;8.30;1.00;;;;;;5075280;28;20425;-87
2022/11/23 04:51:55;;;;;;;4.70;1.40;;;8.40;1.00;;;;;;5090677;28;20460;-87
2022/11/23 04:54:25;;;;;;;1.37;1.27;;;8.30;1.00;;;;;;5085934;28;20443;-85
2022/11/23 04:57:24;;;;;;;5.60;1.80;;;8.20;1.00;;;;;;5073973;28;20801;-87
2022/11/23 04:59:55;;;;;;;6.07;1.70;;;8.30;1.00;;;;;;5086931;28;20470;-87
2022/11/23 05:05:42;;;;;;;8.30;1.73;;;8.30;1.00;;;;;;5093956;28;20453;-87
2022/11/23 05:11:30;;;;;;;6.30;1.60;;;8.30;1.00;;;;;;5082145;28;20275;-83
2022/11/23 05:14:13;;;;;;;5.07;1.40;;;8.30;1.00;;;;;;5086820;28;20465;-84
2022/11/23 05:16:55;;;;;;;4.63;1.30;;;8.30;1.00;;;;;;5089280;28;20625;-83
2022/11/23 05:23:25;;;;;;;6.67;1.67;;;8.20;1.00;;;;;;5074157;28;20551;-84
2022/11/23 05:25:55;;;;;;;3.70;1.73;;;8.30;1.00;;;;;;5077137;28;20477;-82
2022/11/23 05:28:31;;;;;;;4.93;1.73;;;8.20;1.00;;;;;;5073930;28;20422;-81
2022/11/23 05:31:01;;;;;;;17.40;1.80;;;8.30;1.00;;;;;;5072979;28;20512;-80
2022/11/23 05:33:48;;;;;;;14.47;1.80;;;8.20;1.00;;;;;;5086456;28;20413;-80
2022/11/23 05:36:14;;;;;;;2.33;1.53;;;8.30;1.00;;;;;;5073681;28;20504;-80
2022/11/23 05:38:40;;;;;;;4.67;1.40;;;8.30;1.00;;;;;;5077129;28;20554;-80
2022/11/23 05:44:27;;;;;;;4.43;1.70;;;8.30;1.00;;;;;;5077778;28;20446;-83
2022/11/23 05:47:07;;;;;;;4.07;1.60;;;8.30;1.00;;;;;;5077135;28;20983;-83
2022/11/23 05:50:18;;;;;;;1.97;1.60;;;8.40;1.00;;;;;;5077564;28;20178;-83
2022/11/23 05:52:56;;;;;;;1.40;1.30;;;8.30;1.00;;;;;;5080514;28;20424;-83
2022/11/23 05:55:37;;;;;;;5.43;1.40;;;8.30;1.00;;;;;;5087958;28;20425;-83
2022/11/23 05:58:13;;;;;;;5.80;1.57;;;8.30;1.00;;;;;;5080443;28;20423;-81
2022/11/23 06:00:39;;;;;;;4.80;1.70;;;8.30;1.00;;;;;;5084071;28;20443;-80
2022/11/23 06:03:25;;;;;;;2.10;1.30;;;8.20;1.00;;;;;;5079246;28;20425;-80
2022/11/23 06:05:51;;;;;;;7.07;1.87;;;8.20;1.00;;;;;;5080668;28;20219;-79
2022/11/23 06:08:25;;;;;;;3.63;1.37;;;8.30;1.00;;;;;;5077950;28;20433;-79
2022/11/23 06:10:50;;;;;;;4.73;1.70;;;8.20;1.00;;;;;;5081675;28;20856;-72
2022/11/23 06:13:16;;;;;;;4.03;1.27;;;8.20;1.00;;;;;;5079126;28;20536;-72
2022/11/23 06:15:42;;;;;;;4.53;1.30;;;8.20;1.00;;;;;;5083004;28;20265;-72
2022/11/23 06:18:08;;;;;;;4.10;1.53;;;8.10;1.00;;;;;;5087321;28;20572;-72
2022/11/23 06:20:34;;;;;;;5.37;1.50;;;8.10;1.00;;;;;;5089594;28;20173;-72
2022/11/23 06:23:00;;;;;;;6.20;1.40;;;8.10;1.00;;;;;;5073630;28;20401;-72
2022/11/23 06:25:26;;;;;;;3.47;1.30;;;8.20;1.00;;;;;;5072362;28;20437;-72
2022/11/23 06:27:56;;;;;;;4.73;1.20;;;8.30;1.00;;;;;;5073452;28;20442;-73
2022/11/23 06:30:37;;;;;;;4.70;1.17;;;8.20;1.00;;;;;;5074849;28;20444;-73
2022/11/23 06:33:04;;;;;;;2.70;1.03;;;8.30;1.00;;;;;;5073247;28;20425;-73
2022/11/23 06:35:29;;;;;;;6.70;2.03;;;8.30;1.00;;;;;;5084842;28;20447;-73
2022/11/23 06:37:55;;;;;;;4.00;1.60;;;8.30;1.00;;;;;;5082241;28;20429;-73
2022/11/23 06:40:21;;;;;;;6.60;1.40;;;8.30;1.00;;;;;;5112794;28;20246;-73
2022/11/23 06:42:47;;;;;;;7.53;1.90;;;8.40;1.00;;;;;;5082756;28;20250;-73
2022/11/23 06:45:13;;;;;;;4.10;1.70;;;8.30;1.00;;;;;;5069927;28;20179;-73
2022/11/23 06:47:42;;;;;;;5.80;1.20;;;8.30;1.00;;;;;;5091821;28;20425;-73
2022/11/23 06:50:13;;;;;;;6.40;1.37;;;8.20;1.00;;;;;;5080393;28;21246;-73
2022/11/23 06:52:43;;;;;;;7.30;1.53;;;8.10;1.00;;;;;;5090786;28;20408;-73
2022/11/23 06:55:13;;;;;;;2.83;1.10;;;8.10;1.00;;;;;;5079463;28;20954;-73
2022/11/23 06:57:39;;;;;;;7.50;1.80;;;8.10;1.00;;;;;;5085291;28;20482;-73
2022/11/23 07:00:05;;;;;;;3.53;1.53;;;8.10;1.00;;;;;;5084848;28;20460;-72
2022/11/23 07:02:31;;;;;;;3.83;1.70;;;8.10;1.00;;;;;;5080171;28;20175;-72
2022/11/23 07:04:56;;;;;;;3.33;1.70;;;8.10;1.00;;;;;;5073077;28;20467;-72
2022/11/23 07:07:22;;;;;;;3.90;2.23;;;8.00;1.00;;;;;;5079103;28;20526;-73
2022/11/23 07:09:48;;;;;;;5.73;1.67;;;8.10;1.00;;;;;;5084059;28;20214;-72
2022/11/23 07:12:14;;;;;;;3.23;1.27;;;8.10;1.00;;;;;;5086015;28;20239;-72
2022/11/23 07:14:40;;;;;;;4.27;1.50;;;8.00;1.00;;;;;;5082803;28;20804;-72
2022/11/23 07:17:05;;;;;;;5.27;2.03;;;8.10;1.00;;;;;;5076343;28;20179;-73
2022/11/23 07:19:31;;;;;;;5.37;1.97;;;8.10;1.00;;;;;;5079078;28;20926;-72
2022/11/23 07:21:57;;;;;;;7.97;1.63;;;8.10;1.00;;;;;;5075836;28;20206;-72
2022/11/23 07:24:22;;;;;;;5.90;1.60;;;8.10;1.00;;;;;;5076179;28;20225;-72
2022/11/23 07:26:49;;;;;;;4.47;1.70;;;8.10;1.00;;;;;;5082002;28;20590;-72
2022/11/23 07:29:15;;;;;;;2.23;1.70;;;8.00;1.00;;;;;;5081134;28;20553;-74
2022/11/23 07:31:40;;;;;;;5.13;1.77;;;8.00;1.00;;;;;;5088889;28;20442;-72
2022/11/23 07:34:08;;;;;;;6.77;1.30;;;7.90;1.00;;;;;;5075827;28;20191;-73
2022/11/23 07:36:34;;;;;;;6.27;1.97;;;7.90;1.00;;;;;;5080440;28;20174;-74
2022/11/23 07:38:59;;;;;;;8.93;1.70;;;8.00;1.00;;;;;;5080935;28;20468;-73
2022/11/23 07:41:31;;;;;;;4.30;1.90;;;8.00;1.00;;;;;;5089748;28;20519;-75
2022/11/23 07:43:56;;;;;;;12.73;2.10;;;8.00;1.00;;;;;;5080597;28;20662;-72
2022/11/23 07:46:22;;;;;;;5.67;1.73;;;8.10;1.00;;;;;;5076227;28;20533;-73
2022/11/23 07:48:48;;;;;;;3.97;1.53;;;8.10;1.00;;;;;;5075345;28;20178;-72
2022/11/23 07:51:19;;;;;;;6.70;1.80;;;8.10;1.00;;;;;;5082419;28;20630;-72
2022/11/23 07:53:46;;;;;;;6.20;1.63;;;8.30;1.00;;;;;;5075424;28;20224;-72
2022/11/23 07:56:12;;;;;;;6.23;1.93;;;8.20;1.00;;;;;;5073922;28;20525;-72
2022/11/23 07:58:37;;;;;;;7.60;1.70;;;8.30;1.00;;;;;;5081130;28;20453;-82
2022/11/23 08:01:03;;;;;;;8.03;1.83;;;8.30;1.00;;;;;;5084138;28;20945;-82
2022/11/23 08:03:55;;;;;;;6.63;1.50;;;8.50;1.00;;;;;;5084270;28;20182;-82
2022/11/23 08:06:25;;;;;;;2.13;1.80;;;8.60;1.00;;;;;;5078541;28;20176;-82
2022/11/23 08:08:55;;;;;;;4.40;1.20;;;8.60;1.00;;;;;;5082042;28;20499;-82
2022/11/23 08:11:54;;;;;;;4.60;1.63;;;8.70;1.00;;;;;;5078905;28;20749;-82
2022/11/23 08:14:25;;;;;;;10.00;1.80;;;8.80;1.00;;;;;;5090996;28;20435;-86
2022/11/23 08:16:55;;;;;;;17.47;2.10;;;8.90;1.00;;;;;;5083308;28;20422;-83
2022/11/23 08:19:25;;;;;;;7.97;1.30;;;9.00;1.00;;;;;;5092716;28;20452;-86
2022/11/23 08:21:56;;;;;;;6.60;1.40;;;9.20;1.00;;;;;;5078982;28;20912;-86
2022/11/23 08:24:22;;;;;;;12.77;1.83;;;9.10;1.00;;;;;;5074754;28;20901;-82
2022/11/23 08:26:55;;;;;;;6.17;2.30;;;9.10;1.00;;;;;;5077551;28;20432;-81
2022/11/23 08:29:25;;;;;;;6.13;1.87;;;9.20;1.00;;;;;;5086058;28;20677;-82
2022/11/23 08:31:51;;;;;;;2.27;1.30;;;9.30;1.00;;;;;;5093735;28;20791;-83
2022/11/23 08:34:19;;;;;;;8.93;1.60;;;9.40;1.00;;;;;;5086077;28;20439;-81
2022/11/23 08:36:45;;;;;;;10.43;2.23;;;9.30;1.00;;;;;;5085533;28;20266;-82
2022/11/23 08:39:11;;;;;;;5.77;1.53;;;9.30;1.00;;;;;;5075626;28;20559;-82
2022/11/23 08:41:37;;;;;;;3.97;1.93;;;9.40;1.00;;;;;;5079549;28;20423;-82
2022/11/23 08:44:04;;;;;;;11.63;1.70;;;9.30;1.00;;;;;;5092297;28;20495;-81
2022/11/23 08:46:29;;;;;;;11.17;1.63;;;9.30;1.00;;;;;;5075885;28;20900;-82
2022/11/23 08:48:55;;;;;;;8.03;1.73;;;9.20;1.00;;;;;;5076238;28;20443;-82
2022/11/23 08:51:37;;;;;;;3.30;1.60;;;9.20;1.00;;;;;;5083361;28;20191;-82
2022/11/23 08:54:07;;;;;;;19.97;2.37;;;9.30;1.00;;;;;;5100011;28;20633;-82
2022/11/23 08:56:55;;;;;;;3.20;1.60;;;9.30;1.00;;;;;;5085623;28;20954;-82
2022/11/23 08:59:43;;;;;;;6.93;1.67;;;9.30;1.00;;;;;;5107483;28;20957;-86
2022/11/23 09:02:25;;;;;;;3.43;2.10;;;9.30;1.00;;;;;;5099814;28;20462;-86
2022/11/23 09:08:25;;;;;;;5.80;1.80;;;9.20;1.00;;;;;;5084531;28;20524;-86
2022/11/23 09:11:03;;;;;;;3.60;2.40;;;9.00;1.00;;;;;;5089570;28;20401;-86
2022/11/23 09:13:38;;;;;;;2.40;1.73;;;9.00;1.00;;;;;;5093249;28;20455;-83
2022/11/23 09:16:05;;;;;;;2.70;1.60;;;9.00;1.00;;;;;;5092424;28;21064;-82
2022/11/23 09:18:43;;;;;;;5.10;1.90;;;9.00;1.00;;;;;;5095614;28;20460;-82
2022/11/23 09:22:01;;;;;;;5.77;2.00;;;9.10;1.00;;;;;;5083570;28;20419;-82
2022/11/23 09:24:37;;;;;;;6.23;2.33;;;9.10;1.00;;;;;;5091557;28;20424;-82
2022/11/23 09:27:07;;;;;;;7.00;1.87;;;9.10;1.00;;;;;;5073969;28;20409;-82
2022/11/23 09:29:55;;;;;;;4.30;1.80;;;9.10;1.00;;;;;;5075063;28;20422;-85
2022/11/23 09:32:25;;;;;;;7.20;2.00;;;9.20;1.00;;;;;;5082919;28;20432;-85
2022/11/23 09:35:01;;;;;;;7.93;1.70;;;9.30;1.00;;;;;;5073568;28;20457;-85
2022/11/23 09:41:00;;;;;;;5.13;1.43;;;9.30;1.00;;;;;;5080398;28;20479;-85
2022/11/23 09:44:19;;;;;;;1.60;1.23;;;9.30;1.00;;;;;;5089683;28;20971;-83
2022/11/23 09:47:37;;;;;;;11.73;1.83;;;9.40;1.00;;;;;;5088297;28;20420;-82
2022/11/23 09:50:05;;;;;;;2.60;1.40;;;9.50;1.00;;;;;;5080036;28;20430;-81
2022/11/23 09:52:55;;;;;;;5.40;1.80;;;9.40;1.00;;;;;;5079858;28;20432;-78
2022/11/23 09:55:56;;;;;;;3.50;1.63;;;9.50;1.00;;;;;;5083691;28;20509;-78
2022/11/23 09:58:40;;;;;;;4.50;1.60;;;9.50;1.00;;;;;;5082065;28;20481;-79
2022/11/23 10:01:31;;;;;;;4.90;1.70;;;9.50;1.00;;;;;;5079848;28;20950;-82
2022/11/23 10:03:57;;;;;;;3.27;1.70;;;9.50;1.00;;;;;;5078208;28;20466;-82
2022/11/23 10:06:41;;;;;;;9.80;2.50;;;9.60;1.00;;;;;;5081490;28;20429;-82
2022/11/23 10:09:57;;;;;;;4.60;1.80;;;9.60;1.00;;;;;;5093694;28;20428;-86
2022/11/23 10:12:31;;;;;;;3.13;1.23;;;9.60;1.00;;;;;;5019186;28;20449;-82
2022/11/23 10:15:09;;;;;;;7.00;1.63;;;9.70;1.00;;;;;;5014027;28;20525;-83
2022/11/23 10:18:05;;;;;;;3.00;1.40;;;9.70;1.00;;;;;;5027711;28;20891;-79
2022/11/23 10:20:42;;;;;;;5.20;1.70;;;9.70;1.00;;;;;;5024460;28;20998;-84
2022/11/23 10:23:44;;;;;;;7.40;2.00;;;9.80;1.00;;;;;;5030026;28;20468;-84
2022/11/23 10:26:14;;;;;;;4.73;1.40;;;9.80;1.00;;;;;;5030162;28;20529;-84
2022/11/23 10:28:40;;;;;;;7.03;1.30;;;9.60;1.00;;;;;;5021883;28;20446;-88
2022/11/23 10:31:17;;;;;;;9.47;1.60;;;9.60;1.00;;;;;;5014559;28;20411;-87
2022/11/23 10:34:08;;;;;;;7.00;1.47;;;9.70;1.00;;;;;;5016777;28;20204;-81
2022/11/23 10:36:37;;;;;;;4.63;1.70;;;9.90;1.00;;;;;;5027146;28;20880;-74
2022/11/23 10:39:30;;;;;;;10.60;1.77;;;9.90;1.00;;;;;;5027412;28;20485;-74
2022/11/23 10:42:01;;;;;;;3.27;1.40;;;10.10;1.00;;;;;;5023328;28;20981;-80
2022/11/23 10:44:37;;;;;;;3.47;1.17;;;10.10;1.00;;;;;;5010424;28;20428;-82
2022/11/23 10:47:03;;;;;;;8.70;1.50;;;10.10;1.00;;;;;;5030690;28;20431;-79
2022/11/23 10:49:33;;;;;;;3.80;1.07;;;10.10;1.00;;;;;;5082975;28;20474;-81
2022/11/23 10:52:02;;;;;;;9.90;1.10;;;10.20;1.00;;;;;;5080686;28;20432;-80
2022/11/23 10:54:45;;;;;;;8.30;1.60;;;10.30;1.00;;;;;;5079399;28;20468;-80
2022/11/23 10:57:32;;;;;;;18.73;1.50;;;10.40;1.00;;;;;;5076531;28;20428;-79
2022/11/23 11:00:03;;;;;;;4.20;1.50;;;10.40;1.00;;;;;;5075599;28;20467;-80
2022/11/23 11:02:38;;;;;;;4.43;1.30;;;10.50;1.00;;;;;;5075173;28;21050;-80
2022/11/23 11:05:35;;;;;;;7.83;1.50;;;10.50;1.00;;;;;;5077460;28;20819;-79
2022/11/23 11:08:12;;;;;;;6.67;1.40;;;10.40;1.00;;;;;;5013888;28;20468;-81
2022/11/23 11:10:41;;;;;;;8.37;1.47;;;10.50;1.00;;;;;;5013864;28;20431;-80
2022/11/23 11:13:38;;;;;;;7.00;1.33;;;10.60;1.00;;;;;;5008943;28;20435;-80
2022/11/23 11:16:16;;;;;;;4.33;1.20;;;10.70;1.00;;;;;;4989340;28;20444;-81
2022/11/23 11:18:42;;;;;;;4.77;1.23;;;10.70;1.00;;;;;;4999960;28;20470;-81
2022/11/23 11:21:23;;;;;;;10.83;1.50;;;10.70;1.00;;;;;;5013752;28;20427;-81
2022/11/23 11:24:00;;;;;;;10.13;1.50;;;10.80;1.00;;;;;;4996288;28;20216;-81
2022/11/23 11:26:34;;;;;;;9.00;1.50;;;10.90;1.00;;;;;;5012760;28;20427;-80
2022/11/23 11:29:03;;;;;;;4.40;1.30;;;10.90;1.00;;;;;;5010889;28;20432;-79
2022/11/23 11:31:40;;;;;;;5.47;1.50;;;11.00;1.00;;;;;;5011673;28;20539;-79
2022/11/23 11:34:23;;;;;;;8.63;1.40;;;11.10;1.00;;;;;;5006549;28;20441;-75
2022/11/23 11:37:08;;;;;;;2.90;1.30;;;11.10;1.00;;;;;;5011152;28;20548;-79
2022/11/23 11:39:46;;;;;;;4.07;1.40;;;11.10;1.00;;;;;;5003002;28;20480;-80
2022/11/23 11:42:17;;;;;;;7.03;1.30;;;11.30;1.00;;;;;;4997233;28;20432;-79
2022/11/23 11:44:46;;;;;;;5.30;1.40;;;11.30;1.00;;;;;;5045014;28;20893;-80
2022/11/23 11:47:27;;;;;;;4.70;1.43;;;11.30;1.00;;;;;;5086600;28;20432;-80
2022/11/23 11:49:56;;;;;;;3.97;1.27;;;11.40;1.00;;;;;;5077982;28;20437;-80
2022/11/23 11:52:35;;;;;;;5.57;1.30;;;11.50;1.00;;;;;;5086952;28;20427;-81
2022/11/23 11:55:23;;;;;;;5.00;1.17;;;11.60;1.00;;;;;;5095397;28;20407;-82
2022/11/23 11:58:01;;;;;;;9.50;1.20;;;11.60;1.00;;;;;;5094309;28;20798;-81
2022/11/23 12:00:28;;;;;;;3.47;1.17;;;11.60;1.00;;;;;;5087746;28;20456;-81
2022/11/23 12:03:03;;;;;;;1.40;1.00;;;11.60;1.00;;;;;;5085353;28;20788;-81
2022/11/23 12:05:42;;;;;;;6.03;1.30;;;11.40;1.00;;;;;;5081913;28;21077;-81
2022/11/23 12:08:19;;;;;;;2.60;1.07;;;11.60;1.00;;;;;;5090340;28;20568;-80
2022/11/23 12:10:47;;;;;;;4.77;1.23;;;11.60;1.00;;;;;;5081237;28;20428;-81
2022/11/23 12:13:41;;;;;;;4.10;1.10;;;11.60;1.00;;;;;;5081119;28;20475;-80
2022/11/23 12:16:31;;;;;;;10.13;1.37;;;11.70;1.00;;;;;;5071355;28;20911;-82
2022/11/23 12:18:57;;;;;;;2.70;1.00;;;11.80;1.00;;;;;;5079982;28;20971;-82
2022/11/23 12:21:52;;;;;;;1.60;0.97;;;11.70;1.00;;;;;;5080184;28;20472;-81
2022/11/23 12:24:42;;;;;;;4.10;1.33;;;11.60;1.00;;;;;;5077336;28;20628;-80
2022/11/23 12:27:13;;;;;;;4.57;1.13;;;11.50;1.00;;;;;;5075422;28;20523;-81
2022/11/23 12:30:02;;;;;;;6.77;1.43;;;11.50;1.00;;;;;;5074507;28;20428;-80
2022/11/23 12:32:39;;;;;;;4.40;1.43;;;11.60;1.00;;;;;;5073449;28;20429;-80
2022/11/23 12:35:23;;;;;;;5.10;1.00;;;11.60;1.00;;;;;;5075056;28;20466;-81
2022/11/23 12:37:51;;;;;;;5.80;1.13;;;11.70;1.00;;;;;;5083288;28;20466;-81
2022/11/23 12:40:29;;;;;;;12.30;1.60;;;11.70;1.00;;;;;;5073468;28;20446;-81
2022/11/23 12:43:01;;;;;;;4.30;1.10;;;11.60;1.00;;;;;;5074049;28;20424;-80
2022/11/23 12:45:48;;;;;;;3.47;1.00;;;11.70;1.00;;;;;;5082930;28;20472;-82
2022/11/23 12:48:45;;;;;;;4.20;1.23;;;11.60;1.00;;;;;;5088110;28;20420;-82
2022/11/23 12:51:43;;;;;;;9.30;1.47;;;11.50;1.00;;;;;;5042093;28;20418;-82
2022/11/23 12:54:21;;;;;;;2.80;0.90;;;11.50;1.00;;;;;;5025701;28;20505;-81
2022/11/23 12:56:55;;;;;;;3.57;1.10;;;11.60;1.00;;;;;;5030822;28;20443;-80
2022/11/23 12:59:23;;;;;;;1.93;0.93;;;11.60;1.00;;;;;;5030886;28;20477;-80
2022/11/23 13:01:59;;;;;;;11.83;1.37;;;11.70;1.00;;;;;;5031146;28;20430;-80
2022/11/23 13:04:28;;;;;;;4.13;0.93;;;11.80;1.00;;;;;;5019505;28;21143;-80
2022/11/23 13:07:30;;;;;;;4.50;1.07;;;11.80;1.00;;;;;;5014861;28;20433;-80
2022/11/23 13:10:27;;;;;;;4.93;1.20;;;11.80;1.00;;;;;;5024629;28;20468;-80
2022/11/23 13:13:02;;;;;;;5.57;0.90;;;11.80;1.00;;;;;;5009785;28;20438;-86
2022/11/23 13:16:03;;;;;;;3.53;1.00;;;11.80;1.00;;;;;;5022059;28;20430;-85
2022/11/23 13:18:40;;;;;;;3.50;1.00;;;11.80;1.00;;;;;;5030693;28;20474;-85
2022/11/23 13:21:33;;;;;;;6.70;0.90;;;11.80;1.00;;;;;;5029640;28;20449;-85
2022/11/23 13:23:59;;;;;;;5.40;0.90;;;11.80;1.00;;;;;;5022448;28;20500;-88
2022/11/23 13:26:27;;;;;;;2.10;0.80;;;11.80;1.00;;;;;;5022544;28;20795;-84
2022/11/23 13:28:58;;;;;;;1.63;0.97;;;11.80;1.00;;;;;;5049608;28;20441;-84
2022/11/23 13:31:34;;;;;;;4.70;0.80;;;11.80;1.00;;;;;;5067138;28;20545;-84
2022/11/23 13:34:03;;;;;;;2.90;0.83;;;11.80;1.00;;;;;;5076021;28;20430;-85
2022/11/23 13:36:28;;;;;;;2.60;0.93;;;11.90;1.00;;;;;;5073087;28;20832;-84
2022/11/23 13:38:55;;;;;;;12.73;1.40;;;11.70;1.00;;;;;;5072652;28;20464;-84
2022/11/23 13:41:32;;;;;;;6.33;0.83;;;11.50;1.00;;;;;;5073545;28;20646;-83
2022/11/23 13:44:09;;;;;;;2.57;0.80;;;11.60;1.00;;;;;;5073049;28;20415;-83
2022/11/23 13:46:36;;;;;;;2.70;0.77;;;11.60;1.00;;;;;;5077487;28;20447;-83
2022/11/23 13:49:02;;;;;;;5.23;1.13;;;11.60;1.00;;;;;;5078486;28;20425;-85
2022/11/23 13:55:13;;;;;;;6.67;0.90;;;11.60;1.00;;;;;;5075101;28;20415;-83
2022/11/23 13:58:25;;;;;;;4.93;0.90;;;11.50;1.00;;;;;;5081315;28;20496;-83
2022/11/23 14:00:58;;;;;;;3.40;1.00;;;11.50;1.00;;;;;;5009478;28;20507;-76
2022/11/23 14:03:46;;;;;;;2.13;0.80;;;11.50;1.00;;;;;;5007888;28;20544;-76
2022/11/23 14:06:22;;;;;;;2.83;0.93;;;11.40;1.00;;;;;;5012027;28;20397;-75
2022/11/23 14:09:01;;;;;;;2.20;0.70;;;11.30;1.00;;;;;;5011447;28;20474;-76
2022/11/23 14:11:40;;;;;;;3.33;0.80;;;11.30;1.00;;;;;;4996276;28;20483;-76
2022/11/23 14:14:17;;;;;;;1.77;0.60;;;11.30;1.00;;;;;;5003902;28;20420;-76
2022/11/23 14:16:52;;;;;;;7.13;0.80;;;11.20;1.00;;;;;;5008279;28;20412;-77
2022/11/23 14:19:54;;;;;;;1.23;0.70;;;11.10;1.00;;;;;;5003747;28;20455;-76
2022/11/23 14:22:58;;;;;;;2.73;0.83;;;11.10;1.00;;;;;;5011769;28;20423;-79
2022/11/23 14:25:53;;;;;;;4.17;0.80;;;11.00;1.00;;;;;;5011016;28;20929;-79
2022/11/23 14:28:50;;;;;;;4.40;0.90;;;10.90;1.00;;;;;;5011585;28;20421;-79
2022/11/23 14:31:55;;;;;;;1.90;0.70;;;10.80;1.00;;;;;;4984971;28;20424;-80
2022/11/23 14:34:44;;;;;;;3.17;0.90;;;10.90;1.00;;;;;;5034187;28;20435;-79
2022/11/23 14:37:49;;;;;;;2.23;0.73;;;10.80;1.00;;;;;;5063135;28;20482;-80
2022/11/23 14:40:29;;;;;;;5.07;1.17;;;10.70;1.00;;;;;;5073007;28;20511;-83
2022/11/23 14:42:56;;;;;;;7.87;0.90;;;10.70;1.00;;;;;;5079760;28;20442;-84
2022/11/23 14:45:43;;;;;;;0.87;0.80;;;10.70;1.00;;;;;;5073591;28;20416;-85
2022/11/23 14:49:01;;;;;;;4.43;0.73;;;10.60;1.00;;;;;;5081968;28;20976;-87
2022/11/23 14:55:16;;;;;;;3.67;1.07;;;10.40;1.00;;;;;;5074290;28;20386;-84
2022/11/23 14:57:46;;;;;;;3.03;1.10;;;10.30;1.00;;;;;;5073857;28;20421;-82
2022/11/23 15:00:55;;;;;;;5.53;1.03;;;10.20;1.00;;;;;;5072909;28;20456;-87
2022/11/23 15:03:27;;;;;;;4.63;1.10;;;10.10;1.00;;;;;;5071827;28;20409;-85
2022/11/23 15:06:14;;;;;;;3.87;1.07;;;10.00;1.00;;;;;;5081027;28;20533;-88
2022/11/23 15:09:16;;;;;;;4.30;1.00;;;9.80;1.00;;;;;;5072203;28;20574;-83
2022/11/23 15:11:43;;;;;;;3.23;0.83;;;9.70;1.00;;;;;;5076878;28;20424;-89
2022/11/23 15:14:25;;;;;;;3.03;1.13;;;9.50;1.00;;;;;;5089833;28;20494;-88
2022/11/23 15:17:17;;;;;;;6.30;1.40;;;9.40;1.00;;;;;;5073033;28;20425;-83
2022/11/23 15:20:31;;;;;;;2.77;0.97;;;9.20;1.00;;;;;;5076087;28;20456;-84
2022/11/23 15:26:20;;;;;;;4.43;0.87;;;8.90;1.00;;;;;;5079738;28;20443;-77
2022/11/23 15:28:50;;;;;;;17.40;1.07;;;8.60;1.00;;;;;;5092122;28;20428;-77
2022/11/23 15:31:43;;;;;;;5.20;0.97;;;8.60;1.00;;;;;;5077116;28;20413;-73
2022/11/23 15:34:15;;;;;;;5.50;1.00;;;8.40;1.00;;;;;;5076413;28;20484;-77
2022/11/23 15:36:45;;;;;;;2.27;1.17;;;8.30;1.00;;;;;;5076051;28;20932;-76
2022/11/23 15:39:26;;;;;;;5.03;1.00;;;8.30;1.00;;;;;;5086907;28;20534;-77
2022/11/23 15:41:55;;;;;;;1.93;1.00;;;8.10;1.00;;;;;;5090874;28;20492;-77
2022/11/23 15:44:39;;;;;;;4.83;1.13;;;8.00;1.00;;;;;;5095143;28;20416;-76
2022/11/23 15:47:19;;;;;;;2.73;1.33;;;7.90;1.00;;;;;;5085082;28;20426;-76
2022/11/23 15:49:49;;;;;;;4.23;1.43;;;7.80;1.00;;;;;;5082494;28;20950;-76
2022/11/23 15:52:29;;;;;;;3.47;1.10;;;7.80;1.00;;;;;;5084683;28;20463;-76
2022/11/23 15:54:55;;;;;;;12.93;1.10;;;7.70;1.00;;;;;;5089378;28;20435;-76
2022/11/23 15:57:28;;;;;;;13.20;1.60;;;7.60;1.00;;;;;;5085505;28;20421;-76
2022/11/23 16:00:03;;;;;;;2.60;0.90;;;7.50;1.00;;;;;;5082801;28;20460;-76
2022/11/23 16:02:30;;;;;;;2.90;1.20;;;7.40;1.00;;;;;;5082889;28;20413;-73
2022/11/23 16:05:18;;;;;;;1.93;1.00;;;7.40;1.00;;;;;;5095839;28;20495;-72